LiveATC.Net - Listen to live air traffic control over the Internet!


ICAO: ENML  IATA: MOL   Airport: Molde Airport
City: Molde
Country: Norway   Continent: Europe
ENML METAR Weather: ENML 190050Z AUTO 36004KT 9999NDV -SHRA FEW042/// SCT058/// 05/04 Q1026
ENML Flight Activity (FlightAware)

ENML Gnd/Twr/App/Center
Feed Status: DOWN
Last heard on: 2019-09-18 16:08:05 (0 days 9 hours 9 minutes ago)
ENML Gnd/Twr/App/Center Audio Archives
FacilityFrequency
Molde Info119.950

NOTICE

Unauthorized use prohibited. See LiveATC.net Terms of Service


Airport/ARTCC Code
Frequency Search
(e.g., 124.400, 128.75)
Site-wide search
 


Browse LiveATC Feeds
Top 50 LiveATC Feeds
LiveATC Feed Map
Bad Weather Areas

LiveATC FAQ
Offer LiveATC feed
Contact LiveATC.net
Press Inquiries

LiveATC on iPhone
LiveATC on Android

Windows Phone
Windows 8/10

LiveATC Mobile
(Mobile browser)

ATC Audio Archives
Interesting Recordings

LiveATC Forums


Home Page
About LiveATC.net
Make a Donation
Terms of Use
Privacy Policy

Canadian Air Freqs

AIRMETs/SIGMETs

FAA Airport Status
Nat'l Airspace Status
Arrival Demand Charts


Server Software By:
Icecast.org
Liquidsoap